Time;durP1;ratioP1;P1;durP2;ratioP2;P2;SDS_P1;SDS_P2;PMS_P1;PMS_P2;Temp;Humidity;BMP_temperature;BMP_pressure;BME280_temperature;BME280_humidity;BME280_pressure;Samples;Min_cycle;Max_cycle;Signal;HPM_P1;HPM_P2
2022/03/29 00:00:58;;;;;;;16.45;8.57;;;;;;;;;;5079649;28;20032;-90
2022/03/29 00:03:27;;;;;;;19.27;8.20;;;;;;;;;;5080530;28;20048;-91
2022/03/29 00:05:53;;;;;;;18.73;8.05;;;;;;;;;;5095591;28;20043;-90
2022/03/29 00:08:22;;;;;;;17.23;8.63;;;;;;;;;;5086714;28;20051;-90
2022/03/29 00:10:49;;;;;;;16.75;7.93;;;;;;;;;;5077976;28;20509;-90
2022/03/29 00:13:15;;;;;;;17.02;8.20;;;;;;;;;;5078127;28;20119;-89
2022/03/29 00:15:45;;;;;;;21.25;9.70;;;;;;;;;;5078682;28;20023;-91
2022/03/29 00:18:11;;;;;;;20.65;8.10;;;;;;;;;;5078478;28;20024;-90
2022/03/29 00:20:40;;;;;;;18.83;8.50;;;;;;;;;;5078007;28;20028;-91
2022/03/29 00:23:06;;;;;;;17.25;8.25;;;;;;;;;;5077646;28;20038;-88
2022/03/29 00:25:36;;;;;;;18.45;8.13;;;;;;;;;;5077807;28;20213;-91
2022/03/29 00:28:02;;;;;;;20.05;7.57;;;;;;;;;;5095784;28;20110;-88
2022/03/29 00:30:28;;;;;;;19.83;8.20;;;;;;;;;;5078093;28;20380;-89
2022/03/29 00:32:55;;;;;;;13.73;7.22;;;;;;;;;;5077668;28;20039;-90
2022/03/29 00:38:15;;;;;;;16.83;7.95;;;;;;;;;;5095780;28;20042;-90
2022/03/29 00:40:54;;;;;;;15.00;7.28;;;;;;;;;;5111874;22;20044;-90
2022/03/29 00:43:20;;;;;;;23.23;8.23;;;;;;;;;;5077159;28;20038;-90
2022/03/29 00:45:46;;;;;;;22.48;7.85;;;;;;;;;;5077545;28;20024;-89
2022/03/29 00:48:13;;;;;;;19.40;9.32;;;;;;;;;;5077530;28;20031;-89
2022/03/29 00:50:40;;;;;;;18.58;7.45;;;;;;;;;;5077447;28;20048;-89
2022/03/29 00:53:07;;;;;;;15.98;7.72;;;;;;;;;;5077644;28;20510;-90
2022/03/29 00:55:33;;;;;;;17.50;8.25;;;;;;;;;;5077539;28;20020;-92
2022/03/29 00:58:02;;;;;;;15.18;8.00;;;;;;;;;;5077516;28;20042;-89
2022/03/29 01:00:30;;;;;;;21.15;7.72;;;;;;;;;;5077581;28;20028;-91
2022/03/29 01:02:56;;;;;;;20.73;8.60;;;;;;;;;;5077691;28;20020;-90
2022/03/29 01:05:23;;;;;;;16.38;7.45;;;;;;;;;;5077375;28;20028;-90
2022/03/29 01:07:49;;;;;;;14.43;7.43;;;;;;;;;;5077058;28;20408;-90
2022/03/29 01:10:15;;;;;;;17.00;8.30;;;;;;;;;;5076927;28;20477;-88
2022/03/29 01:12:44;;;;;;;18.23;8.70;;;;;;;;;;5077236;28;20047;-89
2022/03/29 01:15:10;;;;;;;24.27;9.70;;;;;;;;;;5076843;28;20023;-89
2022/03/29 01:17:39;;;;;;;18.58;8.38;;;;;;;;;;5077549;28;20059;-89
2022/03/29 01:20:25;;;;;;;21.77;9.25;;;;;;;;;;5077764;28;20059;-90
2022/03/29 01:22:52;;;;;;;31.20;11.80;;;;;;;;;;5085842;28;20047;-89
2022/03/29 01:25:20;;;;;;;29.20;12.73;;;;;;;;;;5077183;28;20119;-88
2022/03/29 01:27:47;;;;;;;30.83;12.07;;;;;;;;;;5077084;28;20024;-90
2022/03/29 01:30:14;;;;;;;29.90;12.55;;;;;;;;;;5077142;28;20024;-90
2022/03/29 01:32:41;;;;;;;29.10;14.38;;;;;;;;;;5077526;28;20035;-89
2022/03/29 01:35:08;;;;;;;38.88;14.55;;;;;;;;;;5079397;28;20032;-89
2022/03/29 01:37:35;;;;;;;33.70;15.30;;;;;;;;;;5080642;28;20028;-89
2022/03/29 01:40:05;;;;;;;33.92;13.82;;;;;;;;;;5089089;28;20510;-90
2022/03/29 01:42:31;;;;;;;33.80;13.50;;;;;;;;;;5134116;28;20055;-89
2022/03/29 01:44:57;;;;;;;37.00;15.57;;;;;;;;;;5116992;28;20085;-89
2022/03/29 01:47:23;;;;;;;29.70;13.32;;;;;;;;;;5113767;28;20487;-89
2022/03/29 01:50:08;;;;;;;36.40;14.70;;;;;;;;;;5113574;28;20104;-90
2022/03/29 01:52:42;;;;;;;29.55;14.00;;;;;;;;;;5113364;28;20032;-90
2022/03/29 01:55:27;;;;;;;40.47;13.80;;;;;;;;;;5114040;28;20024;-90
2022/03/29 01:57:54;;;;;;;31.38;13.25;;;;;;;;;;5114831;28;20127;-90
2022/03/29 02:00:33;;;;;;;35.83;12.93;;;;;;;;;;5113508;28;20042;-89
2022/03/29 02:03:00;;;;;;;33.42;14.82;;;;;;;;;;5114198;28;20031;-90
2022/03/29 02:05:56;;;;;;;28.90;12.75;;;;;;;;;;5113237;28;20076;-93
2022/03/29 02:08:23;;;;;;;29.05;11.98;;;;;;;;;;5085286;28;20040;-90
2022/03/29 02:10:49;;;;;;;29.25;13.40;;;;;;;;;;5113925;28;20023;-89
2022/03/29 02:13:16;;;;;;;38.22;13.93;;;;;;;;;;5113633;28;20080;-89
2022/03/29 02:15:43;;;;;;;33.42;13.20;;;;;;;;;;5113455;28;20016;-90
2022/03/29 02:18:12;;;;;;;38.00;15.50;;;;;;;;;;5096792;28;20032;-90
2022/03/29 02:20:38;;;;;;;31.05;13.57;;;;;;;;;;5113695;28;20375;-90
2022/03/29 02:23:06;;;;;;;30.63;13.38;;;;;;;;;;5114055;28;20024;-89
2022/03/29 02:25:32;;;;;;;29.85;13.23;;;;;;;;;;5117115;28;20084;-90
2022/03/29 02:27:59;;;;;;;34.92;13.40;;;;;;;;;;5114935;28;20399;-90
2022/03/29 02:30:25;;;;;;;31.63;13.52;;;;;;;;;;5113602;28;20023;-90
2022/03/29 02:32:51;;;;;;;36.95;12.93;;;;;;;;;;5113816;28;20046;-91
2022/03/29 02:35:21;;;;;;;33.38;13.60;;;;;;;;;;5113429;28;20024;-88
2022/03/29 02:37:47;;;;;;;33.00;14.77;;;;;;;;;;5112997;28;20035;-90
2022/03/29 02:40:13;;;;;;;34.08;14.65;;;;;;;;;;5113357;28;20044;-89
2022/03/29 02:42:42;;;;;;;36.33;14.10;;;;;;;;;;5113302;28;20118;-90
2022/03/29 02:45:19;;;;;;;33.08;13.70;;;;;;;;;;5116509;28;20098;-91
2022/03/29 02:48:17;;;;;;;30.90;12.32;;;;;;;;;;5117018;28;20169;-88
2022/03/29 02:50:43;;;;;;;25.63;10.85;;;;;;;;;;5106531;28;20027;-90
2022/03/29 02:53:11;;;;;;;27.27;11.18;;;;;;;;;;5117010;28;20028;-89
2022/03/29 02:55:38;;;;;;;25.77;11.35;;;;;;;;;;5116800;28;20020;-90
2022/03/29 02:58:13;;;;;;;30.27;11.93;;;;;;;;;;5117163;28;20083;-91
2022/03/29 03:00:49;;;;;;;23.90;10.60;;;;;;;;;;5116982;28;20030;-91
2022/03/29 03:03:15;;;;;;;28.27;11.32;;;;;;;;;;5117224;28;20039;-90
2022/03/29 03:05:41;;;;;;;31.10;12.15;;;;;;;;;;5116954;28;20464;-90
2022/03/29 03:08:08;;;;;;;28.77;12.65;;;;;;;;;;5117751;28;20024;-89
2022/03/29 03:10:34;;;;;;;25.70;10.93;;;;;;;;;;5117943;28;20020;-90
2022/03/29 03:13:06;;;;;;;24.15;11.23;;;;;;;;;;5118464;28;20078;-89
2022/03/29 03:15:32;;;;;;;24.67;10.90;;;;;;;;;;5119353;28;20031;-91
2022/03/29 03:17:58;;;;;;;32.10;12.27;;;;;;;;;;5134230;28;20049;-90
2022/03/29 03:28:29;;;;;;;21.65;10.15;;;;;;;;;;5332350;22;20059;-89
2022/03/29 03:31:05;;;;;;;16.38;7.88;;;;;;;;;;5142665;22;20407;-92
2022/03/29 03:41:40;;;;;;;21.90;8.45;;;;;;;;;;5075327;28;20068;-92
2022/03/29 03:44:11;;;;;;;18.88;9.10;;;;;;;;;;5075819;28;20107;-89
2022/03/29 03:46:41;;;;;;;19.20;9.05;;;;;;;;;;5075754;28;20035;-89
2022/03/29 03:49:07;;;;;;;20.30;8.25;;;;;;;;;;5075798;28;20051;-91
2022/03/29 03:51:33;;;;;;;19.42;9.05;;;;;;;;;;5075102;28;20404;-89
2022/03/29 03:54:00;;;;;;;23.95;9.48;;;;;;;;;;5074840;28;20025;-91
2022/03/29 03:56:26;;;;;;;22.48;9.88;;;;;;;;;;5075561;28;20377;-92
2022/03/29 03:58:56;;;;;;;22.23;9.35;;;;;;;;;;5075085;28;20035;-90
2022/03/29 04:01:35;;;;;;;23.52;9.55;;;;;;;;;;5075399;28;20036;-90
2022/03/29 04:04:04;;;;;;;19.08;9.10;;;;;;;;;;5076190;28;20021;-90
2022/03/29 04:06:41;;;;;;;24.48;9.73;;;;;;;;;;5075200;28;20537;-89
2022/03/29 04:09:13;;;;;;;25.17;9.30;;;;;;;;;;5075342;28;20085;-90
2022/03/29 04:11:39;;;;;;;23.48;9.77;;;;;;;;;;5074860;28;20485;-90
2022/03/29 04:14:11;;;;;;;22.35;9.43;;;;;;;;;;5074736;28;20032;-90
2022/03/29 04:16:37;;;;;;;23.52;9.07;;;;;;;;;;5075221;28;20123;-90
2022/03/29 04:19:16;;;;;;;26.20;10.60;;;;;;;;;;5074823;28;20484;-88
2022/03/29 04:21:42;;;;;;;22.58;9.55;;;;;;;;;;5074937;28;20093;-89
2022/03/29 04:24:08;;;;;;;22.48;10.02;;;;;;;;;;5074760;28;20028;-90
2022/03/29 04:26:34;;;;;;;22.05;9.55;;;;;;;;;;5074923;28;20025;-90
2022/03/29 04:29:02;;;;;;;24.58;9.27;;;;;;;;;;5074854;28;20052;-90
2022/03/29 04:31:28;;;;;;;28.70;9.98;;;;;;;;;;5074073;28;20040;-90
2022/03/29 04:33:54;;;;;;;24.75;9.27;;;;;;;;;;5074763;28;20052;-90
2022/03/29 04:36:24;;;;;;;20.08;9.60;;;;;;;;;;5074545;28;20078;-90
2022/03/29 04:41:22;;;;;;;27.75;9.98;;;;;;;;;;5087883;22;20151;-88
2022/03/29 04:43:49;;;;;;;26.73;11.05;;;;;;;;;;5058788;28;20138;-86
2022/03/29 04:46:15;;;;;;;22.02;8.65;;;;;;;;;;5046617;28;20114;-88
2022/03/29 04:51:34;;;;;;;30.05;11.43;;;;;;;;;;5111250;22;20090;-88
2022/03/29 04:57:43;;;;;;;27.10;10.60;;;;;;;;;;5014496;28;20029;-89
2022/03/29 05:00:12;;;;;;;28.00;10.00;;;;;;;;;;5013810;28;20034;-89
2022/03/29 05:05:51;;;;;;;21.80;10.60;;;;;;;;;;5031018;28;20063;-88
2022/03/29 05:08:48;;;;;;;24.23;10.68;;;;;;;;;;5018652;28;20501;-92
2022/03/29 05:11:17;;;;;;;31.33;12.57;;;;;;;;;;5019054;28;20510;-88
2022/03/29 05:14:18;;;;;;;31.33;14.65;;;;;;;;;;5016550;28;20034;-88
2022/03/29 05:17:02;;;;;;;37.78;15.48;;;;;;;;;;5016494;28;20029;-91
2022/03/29 05:19:28;;;;;;;34.05;15.55;;;;;;;;;;5031268;28;20478;-86
2022/03/29 05:21:54;;;;;;;36.00;15.07;;;;;;;;;;5015031;28;20032;-86
2022/03/29 05:24:20;;;;;;;29.85;15.30;;;;;;;;;;5012878;28;20049;-87
2022/03/29 05:27:07;;;;;;;32.92;14.32;;;;;;;;;;4997600;28;20028;-90
2022/03/29 05:29:46;;;;;;;31.05;14.93;;;;;;;;;;4996525;28;20053;-88
2022/03/29 05:32:40;;;;;;;38.30;15.95;;;;;;;;;;4995717;28;20029;-89
2022/03/29 05:35:34;;;;;;;34.53;14.60;;;;;;;;;;5056754;28;20070;-89
2022/03/29 05:38:00;;;;;;;;;;;;;;;;;;5056791;28;20033;-89
2022/03/29 05:40:42;;;;;;;32.90;13.98;;;;;;;;;;5056362;28;20326;-86
2022/03/29 05:43:11;;;;;;;32.10;14.30;;;;;;;;;;5057023;28;20460;-87
2022/03/29 05:48:51;;;;;;;50.88;17.83;;;;;;;;;;5094457;28;20028;-87
2022/03/29 05:48:52;;;;;;;39.50;17.98;;;;;;;;;;5086108;28;20137;-90
2022/03/29 05:51:21;;;;;;;30.33;16.13;;;;;;;;;;5056895;28;20188;-90
2022/03/29 05:53:51;;;;;;;37.75;17.75;;;;;;;;;;5056550;28;20024;-88
2022/03/29 05:56:49;;;;;;;;;;;;;;;;;;;;;
2022/03/29 05:59:18;;;;;;;32.58;16.58;;;;;;;;;;5077964;28;20111;-87
2022/03/29 06:01:44;;;;;;;34.78;17.92;;;;;;;;;;5057454;28;20060;-86
2022/03/29 06:04:14;;;;;;;34.17;17.42;;;;;;;;;;5069783;28;20028;-88
2022/03/29 06:06:46;;;;;;;33.05;17.10;;;;;;;;;;5076420;28;20060;-90
2022/03/29 06:09:12;;;;;;;29.42;16.20;;;;;;;;;;5105811;22;20027;-87
2022/03/29 06:11:41;;;;;;;35.83;16.00;;;;;;;;;;5076372;28;20051;-90
2022/03/29 06:14:10;;;;;;;31.33;14.75;;;;;;;;;;5094263;28;20103;-88
2022/03/29 06:16:42;;;;;;;31.55;13.82;;;;;;;;;;5076895;28;20030;-90
2022/03/29 06:19:12;;;;;;;27.38;14.93;;;;;;;;;;5080435;28;20047;-90
2022/03/29 06:21:47;;;;;;;28.42;12.27;;;;;;;;;;5081391;28;20064;-90
2022/03/29 06:24:29;;;;;;;20.50;10.00;;;;;;;;;;5080830;28;20067;-89
2022/03/29 06:26:55;;;;;;;32.58;10.32;;;;;;;;;;5080990;28;20024;-88
2022/03/29 06:32:07;;;;;;;20.65;9.55;;;;;;;;;;5026422;28;20041;-87
2022/03/29 06:34:33;;;;;;;21.88;9.98;;;;;;;;;;5141873;22;20112;-86
2022/03/29 06:37:03;;;;;;;21.55;9.63;;;;;;;;;;5061566;28;20473;-91
2022/03/29 06:39:32;;;;;;;21.63;10.32;;;;;;;;;;5060393;28;20021;-92
2022/03/29 06:41:58;;;;;;;19.40;9.77;;;;;;;;;;5059897;28;20039;-89
2022/03/29 06:44:24;;;;;;;22.42;10.82;;;;;;;;;;5060300;28;20025;-89
2022/03/29 06:46:57;;;;;;;23.52;11.20;;;;;;;;;;5059906;28;20027;-91
2022/03/29 06:49:23;;;;;;;28.83;11.15;;;;;;;;;;5060329;28;20071;-89
2022/03/29 06:51:50;;;;;;;23.42;11.65;;;;;;;;;;5059831;28;20386;-92
2022/03/29 06:54:16;;;;;;;26.48;12.30;;;;;;;;;;5059924;28;20025;-89
2022/03/29 06:56:42;;;;;;;20.60;11.10;;;;;;;;;;5059570;28;20028;-91
2022/03/29 06:59:09;;;;;;;26.15;10.93;;;;;;;;;;5059770;28;20020;-88
2022/03/29 07:01:38;;;;;;;26.83;12.27;;;;;;;;;;5059692;28;20031;-90
2022/03/29 07:04:31;;;;;;;23.00;11.32;;;;;;;;;;5056248;28;20091;-93
2022/03/29 07:06:59;;;;;;;23.02;11.65;;;;;;;;;;5065853;28;20025;-92
2022/03/29 07:12:34;;;;;;;28.42;11.93;;;;;;;;;;5062681;28;20083;-92
2022/03/29 07:15:00;;;;;;;26.92;12.65;;;;;;;;;;5067939;28;20041;-88
2022/03/29 07:17:27;;;;;;;25.13;12.07;;;;;;;;;;5049889;28;20021;-88
2022/03/29 07:20:12;;;;;;;21.33;12.43;;;;;;;;;;5050068;28;20032;-92
2022/03/29 07:22:38;;;;;;;27.65;12.07;;;;;;;;;;5062903;28;20039;-89
2022/03/29 07:25:05;;;;;;;24.88;12.55;;;;;;;;;;5050970;28;20074;-88
2022/03/29 07:27:32;;;;;;;24.75;12.27;;;;;;;;;;5040328;28;20025;-92
2022/03/29 07:30:03;;;;;;;20.05;11.90;;;;;;;;;;5040379;28;20389;-92
2022/03/29 07:32:32;;;;;;;27.45;11.95;;;;;;;;;;5023356;28;20502;-91
2022/03/29 07:34:59;;;;;;;26.20;13.25;;;;;;;;;;5040444;28;20060;-89
2022/03/29 07:37:25;;;;;;;21.02;12.45;;;;;;;;;;5040943;28;20023;-88
2022/03/29 07:39:53;;;;;;;24.90;11.50;;;;;;;;;;5041788;28;20435;-89
2022/03/29 07:42:23;;;;;;;23.92;11.65;;;;;;;;;;5039599;28;20036;-93
2022/03/29 07:48:12;;;;;;;22.92;12.32;;;;;;;;;;4958077;29;20027;-91
2022/03/29 08:02:52;;;;;;;;;;;;;;;;;;5058069;28;20063;-88
2022/03/29 08:05:22;;;;;;;21.08;10.02;;;;;;;;;;5039613;28;19905;-88
2022/03/29 08:08:32;;;;;;;19.80;9.27;;;;;;;;;;5040327;28;20025;-88
2022/03/29 08:11:26;;;;;;;21.15;8.95;;;;;;;;;;4956846;28;20035;-88
2022/03/29 08:14:20;;;;;;;23.00;9.73;;;;;;;;;;5014193;28;20029;-88
2022/03/29 08:16:46;;;;;;;23.63;9.32;;;;;;;;;;5017403;28;20168;-83
2022/03/29 08:19:12;;;;;;;26.02;9.82;;;;;;;;;;5017163;28;20061;-84
2022/03/29 08:21:50;;;;;;;22.17;9.15;;;;;;;;;;5016850;28;20509;-83
2022/03/29 08:24:25;;;;;;;26.25;9.07;;;;;;;;;;5016929;28;20021;-90
2022/03/29 08:26:52;;;;;;;19.60;8.95;;;;;;;;;;5014711;28;20061;-85
2022/03/29 08:29:21;;;;;;;28.17;9.73;;;;;;;;;;5016806;28;20108;-85
2022/03/29 08:31:49;;;;;;;23.88;8.85;;;;;;;;;;5018528;28;20045;-89
2022/03/29 08:34:57;;;;;;;17.58;7.65;;;;;;;;;;5016544;28;20086;-90
2022/03/29 08:37:35;;;;;;;16.48;8.00;;;;;;;;;;5017925;28;20029;-91
2022/03/29 08:40:02;;;;;;;17.85;7.78;;;;;;;;;;5020413;28;20072;-88
2022/03/29 08:42:58;;;;;;;16.17;7.93;;;;;;;;;;5028962;28;20103;-90
2022/03/29 08:45:55;;;;;;;20.33;9.10;;;;;;;;;;5034501;28;20036;-90
2022/03/29 08:51:50;;;;;;;15.85;8.20;;;;;;;;;;5013629;28;20038;-88
2022/03/29 08:54:20;;;;;;;20.15;7.72;;;;;;;;;;5005994;28;20120;-89
2022/03/29 08:56:46;;;;;;;16.55;8.10;;;;;;;;;;5054296;28;20025;-89
2022/03/29 08:59:56;;;;;;;17.60;7.50;;;;;;;;;;5054309;28;20098;-88
2022/03/29 09:02:26;;;;;;;17.05;8.05;;;;;;;;;;4938974;29;20095;-88
2022/03/29 09:05:07;;;;;;;19.95;8.20;;;;;;;;;;4947287;29;20388;-88
2022/03/29 09:07:54;;;;;;;15.85;7.53;;;;;;;;;;5013610;28;20046;-90
2022/03/29 09:10:38;;;;;;;18.67;8.00;;;;;;;;;;5034294;28;20036;-91
2022/03/29 09:13:16;;;;;;;16.25;8.05;;;;;;;;;;5035495;28;20029;-90
2022/03/29 09:15:43;;;;;;;16.58;6.93;;;;;;;;;;5038281;28;20167;-91
2022/03/29 09:18:12;;;;;;;17.48;7.90;;;;;;;;;;5035026;28;20090;-91
2022/03/29 09:21:12;;;;;;;19.13;7.65;;;;;;;;;;5034345;28;20509;-92
2022/03/29 09:23:39;;;;;;;19.08;7.85;;;;;;;;;;5034454;28;20029;-92
2022/03/29 09:26:20;;;;;;;15.85;7.25;;;;;;;;;;5033955;28;20474;-90
2022/03/29 09:28:51;;;;;;;17.30;7.65;;;;;;;;;;5034163;28;20032;-86
2022/03/29 09:31:25;;;;;;;22.38;8.20;;;;;;;;;;5033647;28;20034;-87
2022/03/29 09:33:51;;;;;;;15.68;8.02;;;;;;;;;;5040556;28;20083;-87
2022/03/29 09:36:20;;;;;;;15.43;7.70;;;;;;;;;;5053161;28;20021;-85
2022/03/29 09:38:56;;;;;;;14.70;7.50;;;;;;;;;;5037587;28;20473;-89
2022/03/29 09:41:26;;;;;;;20.50;8.68;;;;;;;;;;5053629;28;20497;-88
2022/03/29 09:44:21;;;;;;;25.73;8.50;;;;;;;;;;5054656;28;20039;-85
2022/03/29 09:47:04;;;;;;;14.77;7.80;;;;;;;;;;4992326;28;20038;-85
2022/03/29 09:56:03;;;;;;;12.77;6.55;;;;;;;;;;5046970;28;20028;-86
2022/03/29 09:58:50;;;;;;;13.57;7.00;;;;;;;;;;5054787;28;20127;-86
2022/03/29 10:04:50;;;;;;;14.13;6.97;;;;;;;;;;5064672;22;20112;-90
2022/03/29 10:07:17;;;;;;;13.82;6.70;;;;;;;;;;5076029;28;20365;-87
2022/03/29 10:09:47;;;;;;;16.13;7.30;;;;;;;;;;5076843;28;20032;-86
2022/03/29 10:12:14;;;;;;;13.10;6.85;;;;;;;;;;5076704;28;20046;-85
2022/03/29 10:14:42;;;;;;;15.32;7.32;;;;;;;;;;5057229;28;20031;-87
2022/03/29 10:17:09;;;;;;;18.23;6.40;;;;;;;;;;5057154;28;20030;-87
2022/03/29 10:19:35;;;;;;;17.38;6.30;;;;;;;;;;5056808;28;20024;-85
2022/03/29 10:22:01;;;;;;;15.80;5.85;;;;;;;;;;5060025;28;20047;-89
2022/03/29 10:24:31;;;;;;;15.70;6.50;;;;;;;;;;5057720;28;20046;-88
2022/03/29 10:27:10;;;;;;;16.92;6.60;;;;;;;;;;5056338;28;20024;-88
2022/03/29 10:29:38;;;;;;;13.23;6.40;;;;;;;;;;5056540;28;20025;-91
2022/03/29 10:32:05;;;;;;;12.90;6.07;;;;;;;;;;5054139;28;20044;-88
2022/03/29 10:34:37;;;;;;;11.85;6.13;;;;;;;;;;5056218;28;20028;-88
2022/03/29 10:37:17;;;;;;;12.18;5.45;;;;;;;;;;5056596;28;20048;-88
2022/03/29 10:39:46;;;;;;;17.13;6.25;;;;;;;;;;5055953;28;20406;-85
2022/03/29 10:42:35;;;;;;;12.98;5.45;;;;;;;;;;5056406;28;20027;-86
2022/03/29 10:45:29;;;;;;;15.60;5.95;;;;;;;;;;5058519;28;20761;-85
2022/03/29 10:48:19;;;;;;;13.55;6.72;;;;;;;;;;5057389;28;20071;-87
2022/03/29 10:50:57;;;;;;;17.67;6.65;;;;;;;;;;5067205;28;20115;-84
2022/03/29 10:53:32;;;;;;;13.57;6.78;;;;;;;;;;5077103;28;20518;-85
2022/03/29 10:56:24;;;;;;;12.43;6.22;;;;;;;;;;5095207;28;20418;-87
2022/03/29 10:59:06;;;;;;;15.20;6.40;;;;;;;;;;5050200;28;20042;-88
2022/03/29 11:01:40;;;;;;;19.50;7.47;;;;;;;;;;5076660;28;20032;-86
2022/03/29 11:04:14;;;;;;;14.60;6.55;;;;;;;;;;5075302;28;20534;-85
2022/03/29 11:09:47;;;;;;;12.25;6.70;;;;;;;;;;5097409;28;20024;-84
2022/03/29 11:12:33;;;;;;;15.63;5.80;;;;;;;;;;5078697;28;20043;-85
2022/03/29 11:15:00;;;;;;;11.77;5.32;;;;;;;;;;5059305;28;20025;-84
2022/03/29 11:17:37;;;;;;;11.70;6.00;;;;;;;;;;5058747;28;20032;-85
2022/03/29 12:01:27;;;;;;;7.90;2.97;;;;;;;;;;4940591;29;20039;-88
2022/03/29 12:04:01;;;;;;;12.60;2.97;;;;;;;;;;4937682;29;20032;-88
2022/03/29 12:07:02;;;;;;;8.20;3.33;;;;;;;;;;4937121;29;20020;-87
2022/03/29 12:09:30;;;;;;;6.95;3.28;;;;;;;;;;4937550;29;20040;-87
2022/03/29 12:12:01;;;;;;;7.38;3.67;;;;;;;;;;4937549;29;20126;-88
2022/03/29 12:14:59;;;;;;;;;;;;;;;;;;;;;
2022/03/29 12:17:49;;;;;;;10.88;3.65;;;;;;;;;;4938068;29;20392;-87
2022/03/29 12:23:11;;;;;;;8.95;3.40;;;;;;;;;;4975002;28;20049;-91
2022/03/29 12:25:40;;;;;;;8.43;3.53;;;;;;;;;;4961803;28;20467;-89
2022/03/29 12:28:10;;;;;;;9.70;3.28;;;;;;;;;;4959394;28;20027;-89
2022/03/29 12:30:37;;;;;;;11.18;4.25;;;;;;;;;;4959682;28;20468;-88
2022/03/29 12:36:15;;;;;;;9.80;4.35;;;;;;;;;;4973803;23;20136;-89
2022/03/29 12:39:31;;;;;;;13.57;4.85;;;;;;;;;;4901342;29;20036;-88
2022/03/29 12:42:03;;;;;;;8.15;3.75;;;;;;;;;;4844880;29;20120;-88
2022/03/29 12:44:57;;;;;;;8.77;3.67;;;;;;;;;;4867797;23;20057;-90
2022/03/29 12:47:26;;;;;;;13.35;4.40;;;;;;;;;;4948122;29;20070;-88
2022/03/29 12:50:01;;;;;;;10.52;4.07;;;;;;;;;;4928484;29;20047;-88
2022/03/29 12:52:28;;;;;;;10.85;4.43;;;;;;;;;;4932758;29;20043;-90
2022/03/29 12:55:07;;;;;;;10.80;4.20;;;;;;;;;;4924445;29;20058;-89
2022/03/29 12:57:43;;;;;;;14.93;5.05;;;;;;;;;;4922527;29;20063;-88
2022/03/29 13:00:18;;;;;;;9.60;4.53;;;;;;;;;;4930594;29;20538;-86
2022/03/29 13:02:54;;;;;;;10.48;4.15;;;;;;;;;;4939869;29;20043;-87
2022/03/29 13:05:24;;;;;;;10.63;4.10;;;;;;;;;;4942514;29;20035;-89
2022/03/29 13:07:53;;;;;;;18.10;4.90;;;;;;;;;;4943137;29;20035;-91
2022/03/29 13:13:36;;;;;;;12.48;4.82;;;;;;;;;;4957448;29;20042;-87
2022/03/29 13:16:36;;;;;;;8.80;4.30;;;;;;;;;;4934701;29;20039;-86
2022/03/29 13:21:34;;;;;;;11.98;4.35;;;;;;;;;;4939485;23;20055;-88
2022/03/29 13:26:30;;;;;;;9.05;3.97;;;;;;;;;;4936835;29;20172;-89
2022/03/29 13:29:36;;;;;;;9.60;3.97;;;;;;;;;;4920770;29;20027;-87
2022/03/29 13:32:08;;;;;;;11.80;3.72;;;;;;;;;;4859118;29;20054;-88
2022/03/29 13:34:34;;;;;;;10.10;4.25;;;;;;;;;;4876925;29;20036;-88
2022/03/29 13:37:04;;;;;;;10.07;4.32;;;;;;;;;;4897529;29;20033;-89
2022/03/29 13:39:39;;;;;;;11.13;4.82;;;;;;;;;;4898065;29;20106;-88
2022/03/29 13:45:10;;;;;;;10.40;4.03;;;;;;;;;;4879721;29;20029;-88
2022/03/29 13:47:41;;;;;;;12.23;4.18;;;;;;;;;;4894545;29;20542;-88
2022/03/29 13:50:10;;;;;;;12.25;4.18;;;;;;;;;;4894242;29;20039;-89
2022/03/29 13:52:36;;;;;;;7.85;3.55;;;;;;;;;;4894500;29;20070;-88
2022/03/29 13:58:05;;;;;;;14.13;4.63;;;;;;;;;;4884964;29;20040;-89
2022/03/29 14:12:02;;;;;;;10.73;4.43;;;;;;;;;;4975636;28;20106;-87
2022/03/29 14:14:41;;;;;;;12.82;4.78;;;;;;;;;;4960227;28;20050;-90
2022/03/29 14:17:07;;;;;;;12.10;5.35;;;;;;;;;;4959352;28;20037;-85
2022/03/29 14:20:06;;;;;;;11.68;4.35;;;;;;;;;;5062766;23;20024;-88
2022/03/29 14:22:36;;;;;;;14.32;6.47;;;;;;;;;;4930011;29;20055;-88
2022/03/29 14:25:04;;;;;;;8.00;3.40;;;;;;;;;;4950830;28;20443;-87
2022/03/29 14:27:46;;;;;;;13.85;4.13;;;;;;;;;;4958021;28;20046;-89
2022/03/29 14:30:15;;;;;;;15.57;4.10;;;;;;;;;;4957943;28;20050;-88
2022/03/29 14:32:42;;;;;;;10.45;4.57;;;;;;;;;;4958298;28;20070;-88
2022/03/29 14:35:30;;;;;;;9.15;4.60;;;;;;;;;;4958211;28;20029;-89
2022/03/29 14:38:09;;;;;;;12.82;3.80;;;;;;;;;;4959232;28;20106;-91
2022/03/29 14:40:35;;;;;;;7.40;3.67;;;;;;;;;;4965095;28;20438;-88
2022/03/29 14:43:17;;;;;;;8.32;3.35;;;;;;;;;;4964228;28;20034;-87
2022/03/29 14:46:17;;;;;;;6.97;3.27;;;;;;;;;;4964264;28;20133;-87
2022/03/29 14:48:53;;;;;;;10.80;4.57;;;;;;;;;;4977039;28;20054;-88
2022/03/29 15:49:18;;;;;;;13.52;6.25;;;;;;;;;;5112713;28;20034;-89
2022/03/29 15:51:45;;;;;;;9.73;5.13;;;;;;;;;;5117221;28;20130;-87
2022/03/29 15:54:13;;;;;;;16.63;5.93;;;;;;;;;;5101717;28;20100;-89
2022/03/29 15:56:45;;;;;;;11.98;5.80;;;;;;;;;;5104340;28;20060;-91
2022/03/29 15:59:11;;;;;;;12.52;5.78;;;;;;;;;;5094489;28;20063;-89
2022/03/29 16:01:38;;;;;;;12.13;5.13;;;;;;;;;;5098418;28;20055;-88
2022/03/29 16:04:06;;;;;;;12.02;4.90;;;;;;;;;;5100639;28;20022;-87
2022/03/29 16:06:35;;;;;;;9.02;4.80;;;;;;;;;;5100703;28;20020;-91
2022/03/29 16:09:33;;;;;;;10.20;5.13;;;;;;;;;;5099061;28;20054;-87
2022/03/29 16:12:35;;;;;;;12.80;4.60;;;;;;;;;;5123980;28;20090;-88
2022/03/29 16:15:01;;;;;;;17.67;5.22;;;;;;;;;;5062057;28;20051;-88
2022/03/29 16:17:37;;;;;;;18.02;5.25;;;;;;;;;;5092591;28;20111;-89
2022/03/29 16:20:04;;;;;;;12.80;4.50;;;;;;;;;;5101451;28;20039;-87
2022/03/29 16:22:30;;;;;;;13.38;4.90;;;;;;;;;;5098605;28;20035;-86
2022/03/29 16:24:57;;;;;;;11.43;4.65;;;;;;;;;;5104950;28;20051;-90
2022/03/29 16:27:23;;;;;;;10.15;4.75;;;;;;;;;;5113048;28;20481;-89
2022/03/29 16:29:52;;;;;;;12.45;4.65;;;;;;;;;;5107997;28;20034;-88
2022/03/29 16:32:19;;;;;;;14.32;4.50;;;;;;;;;;5097814;28;20028;-90
2022/03/29 16:34:45;;;;;;;16.52;5.38;;;;;;;;;;5100478;28;20037;-89
2022/03/29 16:37:11;;;;;;;14.07;4.82;;;;;;;;;;5102655;28;20024;-88
2022/03/29 16:39:37;;;;;;;10.63;4.65;;;;;;;;;;5097999;28;20032;-89
2022/03/29 16:42:07;;;;;;;10.90;5.00;;;;;;;;;;5100049;28;20066;-88
2022/03/29 16:44:33;;;;;;;12.43;4.28;;;;;;;;;;5098013;28;20078;-87
2022/03/29 16:50:15;;;;;;;18.33;5.72;;;;;;;;;;5101249;28;20035;-89
2022/03/29 16:52:41;;;;;;;13.23;5.88;;;;;;;;;;5097485;28;20397;-91
2022/03/29 16:55:11;;;;;;;28.52;5.82;;;;;;;;;;5094703;28;20036;-90
2022/03/29 16:57:37;;;;;;;15.23;6.07;;;;;;;;;;5085313;28;20117;-90
2022/03/29 17:00:18;;;;;;;17.58;5.63;;;;;;;;;;5079949;28;20037;-88
2022/03/29 17:02:44;;;;;;;19.10;6.28;;;;;;;;;;5079760;28;20021;-90
2022/03/29 17:05:10;;;;;;;11.65;5.80;;;;;;;;;;5079243;28;20090;-90
2022/03/29 17:07:39;;;;;;;13.25;5.22;;;;;;;;;;5077063;28;20024;-91
2022/03/29 17:10:14;;;;;;;16.23;5.75;;;;;;;;;;5076435;28;20024;-90
2022/03/29 17:12:41;;;;;;;14.40;5.47;;;;;;;;;;5076909;28;20104;-92
2022/03/29 17:15:07;;;;;;;12.32;5.60;;;;;;;;;;5077888;28;20033;-91
2022/03/29 17:17:34;;;;;;;12.63;5.38;;;;;;;;;;5077291;28;20496;-89
2022/03/29 17:20:02;;;;;;;17.63;6.57;;;;;;;;;;5077441;28;20073;-91
2022/03/29 17:22:31;;;;;;;14.68;6.85;;;;;;;;;;5092336;28;20032;-91
2022/03/29 17:25:01;;;;;;;19.40;7.57;;;;;;;;;;5078701;28;20119;-92
2022/03/29 17:27:28;;;;;;;18.20;8.57;;;;;;;;;;5076901;28;20067;-90
2022/03/29 17:30:16;;;;;;;18.30;9.18;;;;;;;;;;5076291;28;20028;-89
2022/03/29 17:33:01;;;;;;;16.80;7.80;;;;;;;;;;5104525;28;20122;-93
2022/03/29 17:35:49;;;;;;;18.88;8.35;;;;;;;;;;5100575;28;20036;-95
2022/03/29 17:38:19;;;;;;;21.95;8.52;;;;;;;;;;5094654;28;20123;-88
2022/03/29 17:40:46;;;;;;;21.98;7.53;;;;;;;;;;5092151;28;20081;-90
2022/03/29 17:43:13;;;;;;;17.80;8.93;;;;;;;;;;5080019;28;20056;-92
2022/03/29 17:45:39;;;;;;;16.63;8.68;;;;;;;;;;5079712;28;20048;-90
2022/03/29 17:48:11;;;;;;;28.00;11.13;;;;;;;;;;5079115;28;20020;-90
2022/03/29 17:50:40;;;;;;;23.60;10.88;;;;;;;;;;5079589;28;20032;-91
2022/03/29 17:53:13;;;;;;;24.83;10.50;;;;;;;;;;5100487;28;20080;-91
2022/03/29 17:56:03;;;;;;;18.63;9.20;;;;;;;;;;5101711;28;20035;-90
2022/03/29 17:58:33;;;;;;;25.88;9.02;;;;;;;;;;5085707;28;20406;-90
2022/03/29 18:01:00;;;;;;;15.65;8.35;;;;;;;;;;5096211;28;20158;-89
2022/03/29 18:03:29;;;;;;;19.48;8.43;;;;;;;;;;5096555;28;20085;-92
2022/03/29 18:05:55;;;;;;;15.98;8.07;;;;;;;;;;5097765;28;20028;-89
2022/03/29 18:08:21;;;;;;;16.73;8.43;;;;;;;;;;5100444;28;20035;-87
2022/03/29 18:10:48;;;;;;;22.20;9.25;;;;;;;;;;5095536;28;20050;-88
2022/03/29 18:13:14;;;;;;;30.05;10.52;;;;;;;;;;5076901;28;20035;-88
2022/03/29 18:15:40;;;;;;;28.67;12.15;;;;;;;;;;5076006;28;20186;-88
2022/03/29 18:18:07;;;;;;;19.50;9.88;;;;;;;;;;5083410;28;20025;-89
2022/03/29 18:23:50;;;;;;;20.20;7.60;;;;;;;;;;5076632;28;20082;-90
2022/03/29 18:29:19;;;;;;;18.77;8.87;;;;;;;;;;5093157;28;20039;-90